Wetterdaten: Donnerstag, 15.11.2012
Datum Zeit Temperatur Luftfeuchte Regen Wind Richtung Richtung Taupunkt Windchill Windben
15.11.2012 00:00 0,3 C 97 % 0,0 l/m 2,4 km/h (1 Bft) N-NW 337 -0,1 C -0,2 C 2,9 km/h (1 Bft)
15.11.2012 00:05 0,2 C 97 % 0,0 l/m 2,4 km/h (1 Bft) N-NO 22 -0,2 C -0,3 C 2,1 km/h (1 Bft)
15.11.2012 00:10 0,0 C 96 % 0,0 l/m 1,9 km/h (1 Bft) N 360 -0,6 C -0,4 C 3,9 km/h (1 Bft)
15.11.2012 00:15 -0,2 C 96 % 0,0 l/m 1,3 km/h (1 Bft) N-NO 22 -0,8 C -0,7 C 0,0 km/h (0 Bft)
15.11.2012 00:20 -0,4 C 96 % 0,0 l/m 0,0 km/h (0 Bft) W-NW 292 -1,0 C -1,0 C 0,0 km/h (0 Bft)
15.11.2012 00:25 -0,5 C 96 % 0,0 l/m 0,0 km/h (0 Bft) N-NW 337 -1,1 C -1,1 C 0,0 km/h (0 Bft)
15.11.2012 00:30 -0,8 C 96 % 0,0 l/m 0,0 km/h (0 Bft) N-NO 22 -1,4 C -1,4 C 0,0 km/h (0 Bft)
15.11.2012 00:35 -1,0 C 96 % 0,0 l/m 0,0 km/h (0 Bft) N-NO 22 -1,6 C -1,6 C 0,0 km/h (0 Bft)
15.11.2012 00:40 -1,1 C 96 % 0,0 l/m 0,0 km/h (0 Bft) NO 45 -1,7 C -1,9 C 0,0 km/h (0 Bft)
15.11.2012 00:45 -1,0 C 96 % 0,0 l/m 0,0 km/h (0 Bft) NO 45 -1,6 C -1,9 C 0,0 km/h (0 Bft)
15.11.2012 00:50 -0,9 C 96 % 0,0 l/m 0,0 km/h (0 Bft) NO 45 -1,5 C -1,9 C 0,0 km/h (0 Bft)
15.11.2012 00:55 -0,9 C 96 % 0,0 l/m 0,0 km/h (0 Bft) NO 45 -1,5 C -1,8 C 0,0 km/h (0 Bft)
15.11.2012 01:00 -0,9 C 96 % 0,0 l/m 0,0 km/h (0 Bft) NW 315 -1,5 C -1,7 C 0,0 km/h (0 Bft)
15.11.2012 01:05 -0,9 C 96 % 0,0 l/m 0,0 km/h (0 Bft) NW 315 -1,5 C -1,6 C 0,0 km/h (0 Bft)
15.11.2012 01:10 -1,0 C 96 % 0,0 l/m 0,2 km/h (0 Bft) O-SO 112 -1,6 C -1,6 C 1,8 km/h (1 Bft)
15.11.2012 01:15 -0,9 C 96 % 0,0 l/m 0,3 km/h (0 Bft) O-SO 112 -1,5 C -1,5 C 0,0 km/h (0 Bft)
15.11.2012 01:20 -0,9 C 96 % 0,0 l/m 0,3 km/h (0 Bft) O-SO 112 -1,5 C -1,4 C 0,0 km/h (0 Bft)
15.11.2012 01:25 -0,7 C 96 % 0,0 l/m 0,0 km/h (0 Bft) SO 135 -1,3 C -1,4 C 0,0 km/h (0 Bft)
15.11.2012 01:30 -0,7 C 96 % 0,0 l/m 0,0 km/h (0 Bft) O-SO 112 -1,3 C -1,3 C 0,0 km/h (0 Bft)
15.11.2012 01:35 -0,6 C 96 % 0,0 l/m 0,0 km/h (0 Bft) S 180 -1,2 C -1,3 C 0,0 km/h (0 Bft)
15.11.2012 01:40 -0,5 C 96 % 0,0 l/m 0,0 km/h (0 Bft) S 180 -1,1 C -1,1 C 0,0 km/h (0 Bft)
15.11.2012 01:45 -0,5 C 96 % 0,0 l/m 0,0 km/h (0 Bft) S 180 -1,1 C -1,1 C 0,0 km/h (0 Bft)
15.11.2012 01:50 -0,5 C 97 % 0,0 l/m 0,0 km/h (0 Bft) N-NO 22 -0,9 C -1,0 C 0,0 km/h (0 Bft)
15.11.2012 01:55 -0,4 C 97 % 0,0 l/m 0,0 km/h (0 Bft) O 90 -0,8 C -0,9 C 0,0 km/h (0 Bft)
15.11.2012 02:00 -0,4 C 97 % 0,0 l/m 0,0 km/h (0 Bft) O 90 -0,8 C -0,9 C 0,0 km/h (0 Bft)
15.11.2012 02:05 -0,3 C 97 % 0,0 l/m 0,0 km/h (0 Bft) N-NO 22 -0,7 C -0,8 C 0,0 km/h (0 Bft)
15.11.2012 02:10 -0,3 C 97 % 0,0 l/m 0,2 km/h (0 Bft) NO 45 -0,7 C -0,8 C 0,0 km/h (0 Bft)
15.11.2012 02:15 -0,3 C 97 % 0,0 l/m 0,3 km/h (0 Bft) N-NO 22 -0,7 C -0,7 C 0,0 km/h (0 Bft)
15.11.2012 02:20 -0,3 C 97 % 0,0 l/m 0,5 km/h (0 Bft) N 360 -0,7 C -0,7 C 2,4 km/h (1 Bft)
15.11.2012 02:25 -0,4 C 97 % 0,0 l/m 0,6 km/h (0 Bft) N 360 -0,8 C -0,8 C 0,0 km/h (0 Bft)
15.11.2012 02:30 -0,5 C 97 % 0,0 l/m 0,8 km/h (0 Bft) N 360 -0,9 C -0,9 C 4,0 km/h (1 Bft)
15.11.2012 02:35 -0,8 C 97 % 0,0 l/m 1,0 km/h (0 Bft) N 360 -1,2 C -1,1 C 2,1 km/h (1 Bft)
15.11.2012 02:40 -1,0 C 97 % 0,0 l/m 0,6 km/h (0 Bft) N-NW 337 -1,4 C -1,4 C 0,0 km/h (0 Bft)
15.11.2012 02:45 -1,1 C 97 % 0,0 l/m 0,2 km/h (0 Bft) W 270 -1,5 C -1,7 C 0,0 km/h (0 Bft)
15.11.2012 02:50 -1,3 C 97 % 0,0 l/m 0,0 km/h (0 Bft) W-SW 247 -1,7 C -2,0 C 0,0 km/h (0 Bft)
15.11.2012 02:55 -1,5 C 97 % 0,0 l/m 0,0 km/h (0 Bft) W-SW 247 -1,9 C -2,2 C 0,0 km/h (0 Bft)
15.11.2012 03:00 -1,3 C 97 % 0,0 l/m 0,0 km/h (0 Bft) W-SW 247 -1,7 C -2,3 C 0,0 km/h (0 Bft)
15.11.2012 03:05 -1,3 C 97 % 0,0 l/m 0,0 km/h (0 Bft) W-SW 247 -1,7 C -2,2 C 0,0 km/h (0 Bft)
15.11.2012 03:10 -1,2 C 97 % 0,0 l/m 0,0 km/h (0 Bft) O-NO 67 -1,6 C -2,0 C 0,0 km/h (0 Bft)
15.11.2012 03:15 -1,1 C 97 % 0,0 l/m 0,0 km/h (0 Bft) NO 45 -1,5 C -1,9 C 0,0 km/h (0 Bft)
15.11.2012 03:20 -1,0 C 97 % 0,0 l/m 0,0 km/h (0 Bft) NO 45 -1,4 C -1,8 C 0,0 km/h (0 Bft)
15.11.2012 03:25 -1,0 C 97 % 0,0 l/m 0,0 km/h (0 Bft) N-NO 22 -1,4 C -1,7 C 0,0 km/h (0 Bft)
15.11.2012 03:30 -1,0 C 97 % 0,0 l/m 0,0 km/h (0 Bft) O-NO 67 -1,4 C -1,7 C 0,0 km/h (0 Bft)
15.11.2012 03:35 -1,0 C 97 % 0,0 l/m 0,0 km/h (0 Bft) NW 315 -1,4 C -1,7 C 1,8 km/h (1 Bft)
15.11.2012 03:40 -1,1 C 97 % 0,0 l/m 0,0 km/h (0 Bft) SO 135 -1,5 C -1,8 C 0,0 km/h (0 Bft)
15.11.2012 03:45 -1,2 C 97 % 0,0 l/m 0,6 km/h (0 Bft) O-SO 112 -1,6 C -1,8 C 2,1 km/h (1 Bft)
15.11.2012 03:50 -1,4 C 97 % 0,0 l/m 1,4 km/h (1 Bft) SO 135 -1,8 C -1,9 C 1,6 km/h (1 Bft)
15.11.2012 03:55 -1,4 C 97 % 0,0 l/m 1,3 km/h (1 Bft) SO 135 -1,8 C -2,0 C 1,9 km/h (1 Bft)
15.11.2012 04:00 -1,4 C 97 % 0,0 l/m 0,5 km/h (0 Bft) O-SO 112 -1,8 C -2,0 C 1,9 km/h (1 Bft)
15.11.2012 04:05 -1,5 C 97 % 0,0 l/m 0,6 km/h (0 Bft) O-SO 112 -1,9 C -2,1 C 0,0 km/h (0 Bft)
15.11.2012 04:10 -1,6 C 97 % 0,0 l/m 0,3 km/h (0 Bft) O 90 -2,0 C -2,2 C 0,0 km/h (0 Bft)
15.11.2012 04:15 -1,6 C 97 % 0,0 l/m 0,0 km/h (0 Bft) O-SO 112 -2,0 C -2,2 C 0,0 km/h (0 Bft)
15.11.2012 04:20 -1,7 C 97 % 0,0 l/m 0,0 km/h (0 Bft) O-NO 67 -2,1 C -2,4 C 0,0 km/h (0 Bft)
15.11.2012 04:25 -2,0 C 97 % 0,0 l/m 0,0 km/h (0 Bft) O-SO 112 -2,4 C -2,5 C 0,0 km/h (0 Bft)
15.11.2012 04:30 -2,2 C 97 % 0,0 l/m 0,0 km/h (0 Bft) O-SO 112 -2,6 C -2,8 C 0,0 km/h (0 Bft)
15.11.2012 04:35 -2,4 C 96 % 0,0 l/m 0,0 km/h (0 Bft) S-SO 157 -2,9 C -3,1 C 0,0 km/h (0 Bft)
15.11.2012 04:40 -2,5 C 96 % 0,0 l/m 0,0 km/h (0 Bft) S-SO 157 -3,0 C -3,4 C 0,0 km/h (0 Bft)
15.11.2012 04:45 -2,5 C 96 % 0,0 l/m 0,0 km/h (0 Bft) S 180 -3,0 C -3,5 C 0,0 km/h (0 Bft)
15.11.2012 04:50 -2,6 C 96 % 0,0 l/m 0,0 km/h (0 Bft) SO 135 -3,1 C -3,5 C 0,0 km/h (0 Bft)
15.11.2012 04:55 -2,7 C 96 % 0,0 l/m 0,0 km/h (0 Bft) O-SO 112 -3,2 C -3,5 C 0,0 km/h (0 Bft)
15.11.2012 05:00 -2,7 C 96 % 0,0 l/m 0,0 km/h (0 Bft) O-SO 112 -3,2 C -3,5 C 0,0 km/h (0 Bft)
15.11.2012 05:05 -3,0 C 96 % 0,0 l/m 0,0 km/h (0 Bft) O-SO 112 -3,5 C -3,6 C 0,0 km/h (0 Bft)
15.11.2012 05:10 -3,0 C 96 % 0,0 l/m 0,0 km/h (0 Bft) SO 135 -3,5 C -3,8 C 0,0 km/h (0 Bft)
15.11.2012 05:15 -2,9 C 96 % 0,0 l/m 0,0 km/h (0 Bft) O-NO 67 -3,4 C -3,9 C 0,0 km/h (0 Bft)
15.11.2012 05:20 -3,2 C 96 % 0,0 l/m 0,0 km/h (0 Bft) N 360 -3,7 C -3,9 C 0,0 km/h (0 Bft)
15.11.2012 05:25 -3,0 C 96 % 0,0 l/m 0,0 km/h (0 Bft) W-NW 292 -3,5 C -3,8 C 0,0 km/h (0 Bft)
15.11.2012 05:30 -3,1 C 96 % 0,0 l/m 0,0 km/h (0 Bft) N-NW 337 -3,6 C -3,7 C 0,0 km/h (0 Bft)
15.11.2012 05:35 -2,8 C 96 % 0,0 l/m 0,5 km/h (0 Bft) W-NW 292 -3,3 C -3,7 C 1,6 km/h (1 Bft)
15.11.2012 05:40 -3,1 C 96 % 0,0 l/m 0,5 km/h (0 Bft) W-NW 292 -3,6 C -3,6 C 0,0 km/h (0 Bft)
15.11.2012 05:45 -3,2 C 96 % 0,0 l/m 0,2 km/h (0 Bft) W-NW 292 -3,7 C -3,7 C 0,0 km/h (0 Bft)
15.11.2012 05:50 -3,2 C 96 % 0,0 l/m 0,0 km/h (0 Bft) W-NW 292 -3,7 C -3,9 C 0,0 km/h (0 Bft)
15.11.2012 05:55 -3,2 C 96 % 0,0 l/m 0,0 km/h (0 Bft) S 180 -3,7 C -3,9 C 0,0 km/h (0 Bft)
15.11.2012 06:00 -3,3 C 96 % 0,0 l/m 0,2 km/h (0 Bft) S 180 -3,8 C -3,9 C 0,0 km/h (0 Bft)
15.11.2012 06:05 -3,4 C 96 % 0,0 l/m 0,2 km/h (0 Bft) S 180 -3,9 C -4,0 C 0,0 km/h (0 Bft)
15.11.2012 06:10 -3,5 C 96 % 0,0 l/m 0,0 km/h (0 Bft) S 180 -4,0 C -4,3 C 0,0 km/h (0 Bft)
15.11.2012 06:15 -3,7 C 96 % 0,0 l/m 0,0 km/h (0 Bft) S 180 -4,2 C -4,5 C 0,0 km/h (0 Bft)
15.11.2012 06:20 -3,8 C 96 % 0,0 l/m 0,0 km/h (0 Bft) S 180 -4,3 C -4,6 C 0,0 km/h (0 Bft)
15.11.2012 06:25 -3,7 C 96 % 0,0 l/m 0,0 km/h (0 Bft) S 180 -4,2 C -4,6 C 0,0 km/h (0 Bft)
15.11.2012 06:30 -3,8 C 96 % 0,0 l/m 0,0 km/h (0 Bft) S 180 -4,3 C -4,6 C 0,0 km/h (0 Bft)
15.11.2012 06:35 -3,9 C 96 % 0,0 l/m 0,0 km/h (0 Bft) S 180 -4,4 C -4,6 C 0,0 km/h (0 Bft)
15.11.2012 06:40 -3,8 C 96 % 0,0 l/m 0,0 km/h (0 Bft) S-SW 202 -4,3 C -4,8 C 0,0 km/h (0 Bft)
15.11.2012 06:45 -4,0 C 96 % 0,0 l/m 0,0 km/h (0 Bft) S-SW 202 -4,5 C -4,9 C 0,0 km/h (0 Bft)
15.11.2012 06:50 -3,9 C 96 % 0,0 l/m 0,0 km/h (0 Bft) S-SW 202 -4,4 C -5,0 C 0,0 km/h (0 Bft)
15.11.2012 06:55 -4,1 C 96 % 0,0 l/m 0,0 km/h (0 Bft) S-SW 202 -4,6 C -5,0 C 0,0 km/h (0 Bft)
15.11.2012 07:00 -3,8 C 96 % 0,0 l/m 0,0 km/h (0 Bft) S-SW 202 -4,3 C -4,8 C 0,0 km/h (0 Bft)
15.11.2012 07:05 -4,0 C 96 % 0,0 l/m 0,0 km/h (0 Bft) S-SW 202 -4,5 C -4,7 C 0,0 km/h (0 Bft)
15.11.2012 07:10 -4,1 C 96 % 0,0 l/m 0,0 km/h (0 Bft) S-SW 202 -4,6 C -4,8 C 0,0 km/h (0 Bft)
15.11.2012 07:15 -4,0 C 96 % 0,0 l/m 0,0 km/h (0 Bft) S 180 -4,5 C -4,9 C 0,0 km/h (0 Bft)
15.11.2012 07:20 -3,9 C 96 % 0,0 l/m 0,0 km/h (0 Bft) S-SW 202 -4,4 C -4,9 C 0,0 km/h (0 Bft)
15.11.2012 07:25 -4,0 C 96 % 0,0 l/m 0,0 km/h (0 Bft) S 180 -4,5 C -4,9 C 0,0 km/h (0 Bft)
15.11.2012 07:30 -3,8 C 96 % 0,0 l/m 0,0 km/h (0 Bft) S 180 -4,3 C -4,7 C 0,0 km/h (0 Bft)
15.11.2012 07:35 -3,5 C 96 % 0,0 l/m 0,0 km/h (0 Bft) S 180 -4,0 C -4,7 C 0,0 km/h (0 Bft)
15.11.2012 07:40 -3,6 C 96 % 0,0 l/m 0,0 km/h (0 Bft) W-SW 247 -4,1 C -4,6 C 0,0 km/h (0 Bft)
15.11.2012 07:45 -3,8 C 96 % 0,0 l/m 0,0 km/h (0 Bft) W-SW 247 -4,3 C -4,5 C 0,0 km/h (0 Bft)
15.11.2012 07:50 -3,7 C 96 % 0,0 l/m 0,0 km/h (0 Bft) W-SW 247 -4,2 C -4,6 C 0,0 km/h (0 Bft)
15.11.2012 07:55 -3,5 C 96 % 0,0 l/m 0,0 km/h (0 Bft) W-SW 247 -4,0 C -4,5 C 0,0 km/h (0 Bft)
15.11.2012 08:00 -3,6 C 96 % 0,0 l/m 0,0 km/h (0 Bft) W-SW 247 -4,1 C -4,4 C 0,0 km/h (0 Bft)
15.11.2012 08:05 -3,4 C 96 % 0,0 l/m 0,0 km/h (0 Bft) S-SW 202 -3,9 C -4,3 C 0,0 km/h (0 Bft)
15.11.2012 08:10 -3,5 C 96 % 0,0 l/m 0,0 km/h (0 Bft) S-SW 202 -4,0 C -4,2 C 0,0 km/h (0 Bft)
15.11.2012 08:15 -3,4 C 96 % 0,0 l/m 0,0 km/h (0 Bft) S-SW 202 -3,9 C -4,1 C 0,0 km/h (0 Bft)
15.11.2012 08:20 -3,2 C 96 % 0,0 l/m 0,0 km/h (0 Bft) W-SW 247 -3,7 C -4,0 C 0,0 km/h (0 Bft)
15.11.2012 08:25 -3,2 C 96 % 0,0 l/m 0,0 km/h (0 Bft) W-SW 247 -3,7 C -3,9 C 0,0 km/h (0 Bft)
15.11.2012 08:30 -3,2 C 96 % 0,0 l/m 0,0 km/h (0 Bft) W-SW 247 -3,7 C -3,8 C 0,0 km/h (0 Bft)
15.11.2012 08:35 -3,0 C 96 % 0,0 l/m 0,0 km/h (0 Bft) W-SW 247 -3,5 C -3,6 C 0,0 km/h (0 Bft)
15.11.2012 08:40 -2,6 C 96 % 0,0 l/m 0,0 km/h (0 Bft) W-SW 247 -3,1 C -3,4 C 0,0 km/h (0 Bft)
15.11.2012 08:45 -2,2 C 96 % 0,0 l/m 0,0 km/h (0 Bft) N-NW 337 -2,7 C -3,1 C 0,0 km/h (0 Bft)
15.11.2012 08:50 -2,0 C 96 % 0,0 l/m 0,0 km/h (0 Bft) W-NW 292 -2,6 C -2,7 C 0,0 km/h (0 Bft)
15.11.2012 08:55 -2,0 C 96 % 0,0 l/m 0,0 km/h (0 Bft) W 270 -2,6 C -2,5 C 0,0 km/h (0 Bft)
15.11.2012 09:00 -1,7 C 96 % 0,0 l/m 0,0 km/h (0 Bft) W-NW 292 -2,3 C -2,4 C 0,0 km/h (0 Bft)
15.11.2012 09:05 -1,9 C 96 % 0,0 l/m 0,0 km/h (0 Bft) W-NW 292 -2,5 C -2,4 C 0,0 km/h (0 Bft)
15.11.2012 09:10 -1,6 C 96 % 0,0 l/m 0,0 km/h (0 Bft) W-NW 292 -2,2 C -2,0 C 0,0 km/h (0 Bft)
15.11.2012 09:15 -1,3 C 96 % 0,0 l/m 0,0 km/h (0 Bft) W-NW 292 -1,9 C -2,0 C 0,0 km/h (0 Bft)
15.11.2012 09:20 -0,9 C 96 % 0,0 l/m 0,0 km/h (0 Bft) N-NW 337 -1,5 C -1,6 C 0,0 km/h (0 Bft)
15.11.2012 09:25 -0,5 C 96 % 0,0 l/m 0,2 km/h (0 Bft) N-NW 337 -1,1 C -1,4 C 1,6 km/h (1 Bft)
15.11.2012 09:30 -0,3 C 96 % 0,0 l/m 0,2 km/h (0 Bft) N-NW 337 -0,9 C -1,0 C 0,0 km/h (0 Bft)
15.11.2012 09:35 -0,1 C 96 % 0,0 l/m 0,2 km/h (0 Bft) N-NW 337 -0,7 C -0,8 C 0,0 km/h (0 Bft)
15.11.2012 09:40 0,0 C 96 % 0,0 l/m 0,2 km/h (0 Bft) N-NW 337 -0,6 C -0,4 C 0,0 km/h (0 Bft)
15.11.2012 09:45 0,2 C 96 % 0,0 l/m 0,2 km/h (0 Bft) N-NW 337 -0,4 C -0,4 C 0,0 km/h (0 Bft)
15.11.2012 09:50 0,5 C 96 % 0,0 l/m 0,3 km/h (0 Bft) N-NO 22 -0,1 C -0,2 C 1,6 km/h (1 Bft)
15.11.2012 09:55 0,7 C 96 % 0,0 l/m 0,5 km/h (0 Bft) N 360 0,1 C 0,0 C 2,4 km/h (1 Bft)
15.11.2012 10:00 1,0 C 96 % 0,0 l/m 1,0 km/h (0 Bft) N 360 0,4 C 0,9 C 0,0 km/h (0 Bft)
15.11.2012 10:05 1,3 C 96 % 0,0 l/m 0,8 km/h (0 Bft) N-NO 22 0,7 C 2,4 C 0,0 km/h (0 Bft)
15.11.2012 10:10 1,6 C 96 % 0,0 l/m 0,3 km/h (0 Bft) N-NO 22 1,0 C 5,1 C 0,0 km/h (0 Bft)
15.11.2012 10:15 1,8 C 96 % 0,0 l/m 0,2 km/h (0 Bft) N-NO 22 1,2 C 6,6 C 0,0 km/h (0 Bft)
15.11.2012 10:20 2,2 C 96 % 0,0 l/m 0,3 km/h (0 Bft) N 360 1,6 C 6,5 C 1,6 km/h (1 Bft)
15.11.2012 10:25 2,3 C 96 % 0,0 l/m 0,5 km/h (0 Bft) N-NO 22 1,7 C 6,3 C 0,0 km/h (0 Bft)
15.11.2012 10:30 2,5 C 96 % 0,0 l/m 0,6 km/h (0 Bft) N 360 1,9 C 7,6 C 2,1 km/h (1 Bft)
15.11.2012 10:35 2,7 C 96 % 0,0 l/m 0,8 km/h (0 Bft) N-NO 22 2,1 C 8,3 C 2,1 km/h (1 Bft)
15.11.2012 10:40 2,8 C 96 % 0,0 l/m 1,1 km/h (1 Bft) N-NO 22 2,2 C 9,1 C 0,0 km/h (0 Bft)
15.11.2012 10:45 3,0 C 95 % 0,0 l/m 1,1 km/h (1 Bft) N-NO 22 2,3 C 9,6 C 1,8 km/h (1 Bft)
15.11.2012 10:50 3,3 C 96 % 0,0 l/m 1,0 km/h (0 Bft) N-NO 22 2,7 C 9,9 C 0,0 km/h (0 Bft)
15.11.2012 10:55 3,4 C 96 % 0,0 l/m 0,6 km/h (0 Bft) N-NO 22 2,8 C 10,2 C 0,0 km/h (0 Bft)
15.11.2012 11:00 3,6 C 96 % 0,0 l/m 0,3 km/h (0 Bft) N-NO 22 3,0 C 10,7 C 1,8 km/h (1 Bft)
15.11.2012 11:05 3,6 C 96 % 0,0 l/m 0,5 km/h (0 Bft) NO 45 3,0 C 10,9 C 0,0 km/h (0 Bft)
15.11.2012 11:10 3,9 C 96 % 0,0 l/m 0,5 km/h (0 Bft) N-NO 22 3,3 C 11,4 C 0,0 km/h (0 Bft)
15.11.2012 11:15 4,1 C 96 % 0,0 l/m 0,2 km/h (0 Bft) N-NO 22 3,5 C 11,6 C 0,0 km/h (0 Bft)
15.11.2012 11:20 4,3 C 96 % 0,0 l/m 0,0 km/h (0 Bft) NO 45 3,7 C 12,0 C 0,0 km/h (0 Bft)
15.11.2012 11:25 4,2 C 96 % 0,0 l/m 0,0 km/h (0 Bft) N-NO 22 3,6 C 12,9 C 0,0 km/h (0 Bft)
15.11.2012 11:30 4,3 C 96 % 0,0 l/m 0,0 km/h (0 Bft) N-NO 22 3,7 C 13,3 C 0,0 km/h (0 Bft)
15.11.2012 11:35 4,3 C 96 % 0,0 l/m 0,0 km/h (0 Bft) N-NW 337 3,7 C 13,7 C 0,0 km/h (0 Bft)
15.11.2012 11:40 4,6 C 96 % 0,0 l/m 0,6 km/h (0 Bft) N 360 4,0 C 13,7 C 0,0 km/h (0 Bft)
15.11.2012 11:45 4,7 C 96 % 0,0 l/m 1,4 km/h (1 Bft) W 270 4,1 C 13,5 C 2,1 km/h (1 Bft)
15.11.2012 11:50 4,8 C 96 % 0,0 l/m 1,8 km/h (1 Bft) W 270 4,2 C 13,4 C 4,3 km/h (1 Bft)
15.11.2012 11:55 4,9 C 96 % 0,0 l/m 1,6 km/h (1 Bft) W-NW 292 4,3 C 13,6 C 3,9 km/h (1 Bft)
15.11.2012 12:00 4,8 C 96 % 0,0 l/m 1,0 km/h (0 Bft) SW 225 4,2 C 14,1 C 0,0 km/h (0 Bft)
15.11.2012 12:05 4,8 C 96 % 0,0 l/m 0,6 km/h (0 Bft) N 360 4,2 C 14,7 C 1,6 km/h (1 Bft)
15.11.2012 12:10 5,1 C 96 % 0,0 l/m 0,3 km/h (0 Bft) W-NW 292 4,5 C 14,8 C 3,9 km/h (1 Bft)
15.11.2012 12:15 5,1 C 96 % 0,0 l/m 0,8 km/h (0 Bft) N-NO 22 4,5 C 13,9 C 0,0 km/h (0 Bft)
15.11.2012 12:20 5,1 C 96 % 0,0 l/m 1,9 km/h (1 Bft) N-NW 337 4,5 C 12,8 C 4,8 km/h (1 Bft)
15.11.2012 12:25 4,9 C 96 % 0,0 l/m 1,8 km/h (1 Bft) N-NW 337 4,3 C 11,9 C 4,0 km/h (1 Bft)
15.11.2012 12:30 4,9 C 96 % 0,0 l/m 1,4 km/h (1 Bft) NW 315 4,3 C 10,7 C 2,3 km/h (1 Bft)
15.11.2012 12:35 4,8 C 96 % 0,0 l/m 1,6 km/h (1 Bft) NW 315 4,2 C 9,9 C 2,1 km/h (1 Bft)
15.11.2012 12:40 4,8 C 96 % 0,0 l/m 2,1 km/h (1 Bft) W-NW 292 4,2 C 8,9 C 1,9 km/h (1 Bft)
15.11.2012 12:45 4,9 C 96 % 0,0 l/m 1,8 km/h (1 Bft) N 360 4,3 C 8,8 C 1,9 km/h (1 Bft)
15.11.2012 12:50 5,2 C 96 % 0,0 l/m 1,0 km/h (0 Bft) N-NW 337 4,6 C 8,8 C 0,0 km/h (0 Bft)
15.11.2012 12:55 5,2 C 96 % 0,0 l/m 0,5 km/h (0 Bft) N-NO 22 4,6 C 9,0 C 0,0 km/h (0 Bft)
15.11.2012 13:00 5,2 C 96 % 0,0 l/m 0,8 km/h (0 Bft) NW 315 4,6 C 10,2 C 2,6 km/h (1 Bft)
15.11.2012 13:05 5,2 C 96 % 0,0 l/m 1,1 km/h (1 Bft) N-NW 337 4,6 C 10,8 C 2,7 km/h (1 Bft)
15.11.2012 13:10 5,4 C 96 % 0,0 l/m 1,6 km/h (1 Bft) W-NW 292 4,8 C 9,8 C 2,7 km/h (1 Bft)
15.11.2012 13:15 5,4 C 96 % 0,0 l/m 1,9 km/h (1 Bft) N 360 4,8 C 9,1 C 4,2 km/h (1 Bft)
15.11.2012 13:20 5,7 C 96 % 0,0 l/m 2,4 km/h (1 Bft) NW 315 5,1 C 8,5 C 3,5 km/h (1 Bft)
15.11.2012 13:25 5,7 C 96 % 0,0 l/m 2,3 km/h (1 Bft) N-NW 337 5,1 C 8,3 C 2,1 km/h (1 Bft)
15.11.2012 13:30 5,8 C 96 % 0,0 l/m 1,1 km/h (1 Bft) W-NW 292 5,2 C 8,1 C 0,0 km/h (0 Bft)
15.11.2012 13:32 5,9 C 96 % 0,0 l/m 0,6 km/h (0 Bft) N 360 5,3 C 8,1 C 0,0 km/h (0 Bft)
15.11.2012 13:36 5,9 C 96 % 0,0 l/m 0,6 km/h (0 Bft) N 360 5,3 C 8,1 C 0,0 km/h (0 Bft)
15.11.2012 13:40 6,1 C 94 % 0,0 l/m 1,8 km/h (1 Bft) W 270 5,2 C 8,0 C 5,0 km/h (1 Bft)
15.11.2012 13:45 6,2 C 94 % 0,0 l/m 1,6 km/h (1 Bft) N 360 5,3 C 8,1 C 2,7 km/h (1 Bft)
15.11.2012 13:50 6,4 C 94 % 0,0 l/m 0,6 km/h (0 Bft) N 360 5,5 C 8,0 C 0,0 km/h (0 Bft)
15.11.2012 13:55 6,3 C 94 % 0,0 l/m 0,5 km/h (0 Bft) N 360 5,4 C 7,9 C 0,0 km/h (0 Bft)
15.11.2012 14:00 6,3 C 94 % 0,0 l/m 0,3 km/h (0 Bft) N 360 5,4 C 7,9 C 2,6 km/h (1 Bft)
15.11.2012 14:05 6,3 C 94 % 0,0 l/m 0,6 km/h (0 Bft) N-NW 337 5,4 C 8,1 C 0,0 km/h (0 Bft)
15.11.2012 14:10 6,5 C 94 % 0,0 l/m 1,0 km/h (0 Bft) N 360 5,6 C 7,9 C 0,0 km/h (0 Bft)
15.11.2012 14:15 6,4 C 93 % 0,0 l/m 0,8 km/h (0 Bft) N-NO 22 5,4 C 7,9 C 0,0 km/h (0 Bft)
15.11.2012 14:20 6,5 C 93 % 0,0 l/m 0,5 km/h (0 Bft) W 270 5,5 C 8,0 C 1,8 km/h (1 Bft)
15.11.2012 14:25 6,4 C 93 % 0,0 l/m 0,8 km/h (0 Bft) N-NW 337 5,4 C 7,9 C 2,1 km/h (1 Bft)
15.11.2012 14:30 6,2 C 93 % 0,0 l/m 1,3 km/h (1 Bft) N 360 5,2 C 7,8 C 1,6 km/h (1 Bft)
15.11.2012 14:35 6,2 C 92 % 0,0 l/m 1,1 km/h (1 Bft) N-NW 337 5,0 C 7,5 C 2,7 km/h (1 Bft)
15.11.2012 14:40 6,2 C 92 % 0,0 l/m 1,1 km/h (1 Bft) N-NO 22 5,0 C 7,3 C 1,9 km/h (1 Bft)
15.11.2012 14:45 6,3 C 92 % 0,0 l/m 1,1 km/h (1 Bft) W-NW 292 5,1 C 7,3 C 2,6 km/h (1 Bft)
15.11.2012 14:50 6,5 C 91 % 0,0 l/m 1,0 km/h (0 Bft) N 360 5,1 C 7,5 C 1,8 km/h (1 Bft)
15.11.2012 14:55 6,4 C 91 % 0,0 l/m 0,6 km/h (0 Bft) N 360 5,0 C 7,5 C 1,6 km/h (1 Bft)
15.11.2012 15:00 6,7 C 90 % 0,0 l/m 0,5 km/h (0 Bft) N 360 5,2 C 7,3 C 0,0 km/h (0 Bft)
15.11.2012 15:05 6,5 C 90 % 0,0 l/m 0,5 km/h (0 Bft) W-NW 292 5,0 C 7,3 C 0,0 km/h (0 Bft)
15.11.2012 15:10 6,5 C 90 % 0,0 l/m 0,2 km/h (0 Bft) N 360 5,0 C 7,0 C 0,0 km/h (0 Bft)
15.11.2012 15:15 6,4 C 90 % 0,0 l/m 0,0 km/h (0 Bft) N 360 4,9 C 6,9 C 0,0 km/h (0 Bft)
15.11.2012 15:20 6,1 C 90 % 0,0 l/m 0,0 km/h (0 Bft) N 360 4,6 C 6,6 C 0,0 km/h (0 Bft)
15.11.2012 15:25 6,1 C 90 % 0,0 l/m 0,0 km/h (0 Bft) N 360 4,6 C 6,4 C 0,0 km/h (0 Bft)
15.11.2012 15:30 5,9 C 92 % 0,0 l/m 0,0 km/h (0 Bft) N 360 4,7 C 6,2 C 0,0 km/h (0 Bft)
15.11.2012 15:35 5,7 C 92 % 0,0 l/m 0,0 km/h (0 Bft) N-NO 22 4,5 C 6,0 C 0,0 km/h (0 Bft)
15.11.2012 15:40 5,3 C 92 % 0,0 l/m 0,0 km/h (0 Bft) N-NO 22 4,1 C 5,6 C 0,0 km/h (0 Bft)
15.11.2012 15:45 5,1 C 92 % 0,0 l/m 0,0 km/h (0 Bft) N 360 3,9 C 5,4 C 0,0 km/h (0 Bft)
15.11.2012 15:50 5,2 C 93 % 0,0 l/m 0,0 km/h (0 Bft) N 360 4,2 C 5,2 C 0,0 km/h (0 Bft)
15.11.2012 15:55 5,2 C 93 % 0,0 l/m 0,2 km/h (0 Bft) N 360 4,2 C 5,1 C 2,3 km/h (1 Bft)
15.11.2012 16:00 5,3 C 93 % 0,0 l/m 0,3 km/h (0 Bft) N-NW 337 4,3 C 5,0 C 0,0 km/h (0 Bft)
15.11.2012 16:05 5,1 C 93 % 0,0 l/m 0,2 km/h (0 Bft) N-NO 22 4,1 C 4,9 C 0,0 km/h (0 Bft)
15.11.2012 16:10 5,0 C 93 % 0,0 l/m 0,0 km/h (0 Bft) N-NO 22 4,0 C 4,6 C 0,0 km/h (0 Bft)
15.11.2012 16:15 4,7 C 93 % 0,0 l/m 0,2 km/h (0 Bft) N-NO 22 3,7 C 4,5 C 0,0 km/h (0 Bft)
15.11.2012 16:20 4,8 C 94 % 0,0 l/m 0,3 km/h (0 Bft) NO 45 3,9 C 4,3 C 0,0 km/h (0 Bft)
15.11.2012 16:25 4,7 C 94 % 0,0 l/m 0,3 km/h (0 Bft) N 360 3,8 C 4,1 C 0,0 km/h (0 Bft)
15.11.2012 16:30 4,5 C 94 % 0,0 l/m 0,6 km/h (0 Bft) NW 315 3,6 C 3,9 C 0,0 km/h (0 Bft)
15.11.2012 16:35 4,4 C 94 % 0,0 l/m 0,6 km/h (0 Bft) N 360 3,5 C 3,7 C 0,0 km/h (0 Bft)
15.11.2012 16:40 4,3 C 94 % 0,0 l/m 0,0 km/h (0 Bft) O 90 3,4 C 3,4 C 0,0 km/h (0 Bft)
15.11.2012 16:45 4,0 C 94 % 0,0 l/m 0,0 km/h (0 Bft) NO 45 3,1 C 3,2 C 0,0 km/h (0 Bft)
15.11.2012 16:50 3,9 C 94 % 0,0 l/m 0,0 km/h (0 Bft) N 360 3,0 C 2,9 C 0,0 km/h (0 Bft)
15.11.2012 16:55 3,8 C 94 % 0,0 l/m 0,0 km/h (0 Bft) N 360 2,9 C 2,7 C 0,0 km/h (0 Bft)
15.11.2012 17:00 3,6 C 94 % 0,0 l/m 0,0 km/h (0 Bft) NO 45 2,7 C 2,4 C 0,0 km/h (0 Bft)
15.11.2012 17:05 3,4 C 94 % 0,0 l/m 0,0 km/h (0 Bft) N-NO 22 2,5 C 2,4 C 0,0 km/h (0 Bft)
15.11.2012 17:10 3,1 C 94 % 0,0 l/m 0,0 km/h (0 Bft) N-NW 337 2,2 C 2,2 C 0,0 km/h (0 Bft)
15.11.2012 17:15 3,0 C 94 % 0,0 l/m 0,0 km/h (0 Bft) NO 45 2,1 C 2,1 C 1,6 km/h (1 Bft)
15.11.2012 17:20 2,8 C 95 % 0,0 l/m 0,2 km/h (0 Bft) N-NO 22 2,1 C 1,9 C 0,0 km/h (0 Bft)
15.11.2012 17:25 2,1 C 95 % 0,0 l/m 0,2 km/h (0 Bft) N 360 1,4 C 1,7 C 0,0 km/h (0 Bft)
15.11.2012 17:30 1,6 C 95 % 0,0 l/m 0,0 km/h (0 Bft) NO 45 0,9 C 1,2 C 0,0 km/h (0 Bft)
15.11.2012 17:35 2,1 C 95 % 0,0 l/m 0,0 km/h (0 Bft) N 360 1,4 C 1,0 C 0,0 km/h (0 Bft)
15.11.2012 17:40 2,4 C 95 % 0,0 l/m 0,2 km/h (0 Bft) N 360 1,7 C 1,0 C 0,0 km/h (0 Bft)
15.11.2012 17:45 2,3 C 95 % 0,0 l/m 0,2 km/h (0 Bft) N 360 1,6 C 1,0 C 0,0 km/h (0 Bft)
15.11.2012 17:50 1,4 C 95 % 0,0 l/m 0,0 km/h (0 Bft) N-NO 22 0,7 C 0,6 C 0,0 km/h (0 Bft)
15.11.2012 17:55 1,4 C 95 % 0,0 l/m 0,0 km/h (0 Bft) NO 45 0,7 C 0,4 C 0,0 km/h (0 Bft)
15.11.2012 18:00 2,0 C 95 % 0,0 l/m 0,3 km/h (0 Bft) NO 45 1,3 C 0,6 C 0,0 km/h (0 Bft)
15.11.2012 18:05 1,8 C 96 % 0,0 l/m 0,3 km/h (0 Bft) S-SO 157 1,2 C 0,7 C 0,0 km/h (0 Bft)
15.11.2012 18:10 1,1 C 96 % 0,0 l/m 0,0 km/h (0 Bft) N 360 0,5 C 0,3 C 0,0 km/h (0 Bft)
15.11.2012 18:15 1,4 C 96 % 0,0 l/m 0,3 km/h (0 Bft) NO 45 0,8 C 0,2 C 0,0 km/h (0 Bft)
15.11.2012 18:20 1,4 C 96 % 0,0 l/m 1,0 km/h (0 Bft) N-NO 22 0,8 C 0,3 C 0,0 km/h (0 Bft)
15.11.2012 18:25 1,5 C 96 % 0,0 l/m 0,6 km/h (0 Bft) N 360 0,9 C 0,2 C 0,0 km/h (0 Bft)
15.11.2012 18:30 0,6 C 96 % 0,0 l/m 0,0 km/h (0 Bft) N 360 0,0 C -0,3 C 0,0 km/h (0 Bft)
15.11.2012 18:35 0,5 C 96 % 0,0 l/m 0,0 km/h (0 Bft) N 360 -0,1 C -0,5 C 0,0 km/h (0 Bft)
15.11.2012 18:40 0,1 C 96 % 0,0 l/m 0,0 km/h (0 Bft) N 360 -0,5 C -0,7 C 0,0 km/h (0 Bft)
15.11.2012 18:45 -0,1 C 96 % 0,0 l/m 0,0 km/h (0 Bft) N 360 -0,7 C -0,8 C 0,0 km/h (0 Bft)
15.11.2012 18:50 0,4 C 96 % 0,0 l/m 0,0 km/h (0 Bft) N-NO 22 -0,2 C -0,9 C 0,0 km/h (0 Bft)
15.11.2012 18:55 0,7 C 96 % 0,0 l/m 0,0 km/h (0 Bft) N 360 0,1 C -0,8 C 0,0 km/h (0 Bft)
15.11.2012 19:00 0,0 C 96 % 0,0 l/m 0,0 km/h (0 Bft) N-NW 337 -0,6 C -0,7 C 0,0 km/h (0 Bft)
15.11.2012 19:05 0,0 C 96 % 0,0 l/m 0,0 km/h (0 Bft) N 360 -0,6 C -0,7 C 0,0 km/h (0 Bft)
15.11.2012 19:10 0,6 C 96 % 0,0 l/m 0,0 km/h (0 Bft) N-NO 22 0,0 C -0,9 C 0,0 km/h (0 Bft)
15.11.2012 19:15 0,7 C 96 % 0,0 l/m 0,2 km/h (0 Bft) NO 45 0,1 C -0,6 C 2,6 km/h (1 Bft)
15.11.2012 19:20 1,0 C 96 % 0,0 l/m 0,5 km/h (0 Bft) N-NO 22 0,4 C -0,3 C 0,0 km/h (0 Bft)
15.11.2012 19:26 0,7 C 96 % 0,0 l/m 0,3 km/h (0 Bft) N 360 0,1 C -0,3 C 0,0 km/h (0 Bft)
15.11.2012 19:30 1,2 C 96 % 0,0 l/m 0,0 km/h (0 Bft) N-NO 22 0,6 C -0,3 C 0,0 km/h (0 Bft)
15.11.2012 19:35 1,1 C 96 % 0,0 l/m 0,3 km/h (0 Bft) NO 45 0,5 C -0,3 C 0,0 km/h (0 Bft)
15.11.2012 19:40 1,3 C 96 % 0,0 l/m 0,3 km/h (0 Bft) N 360 0,7 C -0,3 C 0,0 km/h (0 Bft)
15.11.2012 19:45 1,0 C 96 % 0,0 l/m 0,3 km/h (0 Bft) O-NO 67 0,4 C -0,4 C 0,0 km/h (0 Bft)
15.11.2012 19:50 1,1 C 96 % 0,0 l/m 0,2 km/h (0 Bft) NO 45 0,5 C -0,5 C 1,6 km/h (1 Bft)
15.11.2012 19:55 0,6 C 97 % 0,0 l/m 0,2 km/h (0 Bft) O-SO 112 0,2 C -0,4 C 0,0 km/h (0 Bft)
15.11.2012 20:00 -0,3 C 96 % 0,0 l/m 0,0 km/h (0 Bft) N 360 -0,9 C -1,0 C 0,0 km/h (0 Bft)
15.11.2012 20:05 -0,3 C 96 % 0,0 l/m 0,0 km/h (0 Bft) SO 135 -0,9 C -1,3 C 0,0 km/h (0 Bft)
15.11.2012 20:10 -0,5 C 96 % 0,0 l/m 0,0 km/h (0 Bft) N-NO 22 -1,1 C -1,5 C 0,0 km/h (0 Bft)
15.11.2012 20:15 0,2 C 96 % 0,0 l/m 0,0 km/h (0 Bft) NO 45 -0,4 C -1,4 C 0,0 km/h (0 Bft)
15.11.2012 20:20 -0,5 C 96 % 0,0 l/m 0,0 km/h (0 Bft) N 360 -1,1 C -1,4 C 0,0 km/h (0 Bft)
15.11.2012 20:25 -0,9 C 96 % 0,0 l/m 0,0 km/h (0 Bft) N-NO 22 -1,5 C -1,6 C 0,0 km/h (0 Bft)
15.11.2012 20:30 -1,1 C 96 % 0,0 l/m 0,0 km/h (0 Bft) S-SW 202 -1,7 C -1,9 C 0,0 km/h (0 Bft)
15.11.2012 20:35 -1,1 C 96 % 0,0 l/m 0,0 km/h (0 Bft) S-SW 202 -1,7 C -2,0 C 0,0 km/h (0 Bft)
15.11.2012 20:40 -1,1 C 96 % 0,0 l/m 0,0 km/h (0 Bft) S-SW 202 -1,7 C -1,9 C 0,0 km/h (0 Bft)
15.11.2012 20:45 -1,3 C 96 % 0,0 l/m 0,0 km/h (0 Bft) S-SW 202 -1,9 C -2,0 C 0,0 km/h (0 Bft)
15.11.2012 20:50 -0,9 C 96 % 0,0 l/m 0,0 km/h (0 Bft) S-SW 202 -1,5 C -2,0 C 0,0 km/h (0 Bft)
15.11.2012 20:55 -1,1 C 96 % 0,0 l/m 0,0 km/h (0 Bft) S-SW 202 -1,7 C -1,9 C 0,0 km/h (0 Bft)
15.11.2012 21:00 -1,6 C 96 % 0,0 l/m 0,0 km/h (0 Bft) S-SO 157 -2,2 C -2,1 C 0,0 km/h (0 Bft)
15.11.2012 21:05 -1,5 C 96 % 0,0 l/m 0,0 km/h (0 Bft) S-SW 202 -2,1 C -2,3 C 0,0 km/h (0 Bft)
15.11.2012 21:10 -1,3 C 96 % 0,0 l/m 0,0 km/h (0 Bft) W-NW 292 -1,9 C -2,2 C 0,0 km/h (0 Bft)
15.11.2012 21:15 -1,6 C 96 % 0,0 l/m 0,0 km/h (0 Bft) W-NW 292 -2,2 C -2,0 C 0,0 km/h (0 Bft)
15.11.2012 21:20 -1,1 C 96 % 0,0 l/m 0,0 km/h (0 Bft) N-NO 22 -1,7 C -2,0 C 0,0 km/h (0 Bft)
15.11.2012 21:25 -0,7 C 96 % 0,0 l/m 0,0 km/h (0 Bft) O-SO 112 -1,3 C -1,8 C 0,0 km/h (0 Bft)
15.11.2012 21:30 -1,2 C 96 % 0,0 l/m 0,0 km/h (0 Bft) N-NO 22 -1,8 C -1,9 C 0,0 km/h (0 Bft)
15.11.2012 21:35 -0,9 C 96 % 0,0 l/m 0,0 km/h (0 Bft) N-NO 22 -1,5 C -2,0 C 0,0 km/h (0 Bft)
15.11.2012 21:40 -0,8 C 96 % 0,0 l/m 0,0 km/h (0 Bft) NO 45 -1,4 C -2,1 C 0,0 km/h (0 Bft)
15.11.2012 21:45 -0,9 C 96 % 0,0 l/m 0,0 km/h (0 Bft) NO 45 -1,5 C -2,3 C 0,0 km/h (0 Bft)
15.11.2012 21:50 -1,1 C 96 % 0,0 l/m 0,0 km/h (0 Bft) NO 45 -1,7 C -2,4 C 0,0 km/h (0 Bft)
15.11.2012 21:55 -1,0 C 96 % 0,0 l/m 0,0 km/h (0 Bft) NO 45 -1,6 C -2,4 C 0,0 km/h (0 Bft)
15.11.2012 22:00 -1,3 C 96 % 0,0 l/m 0,0 km/h (0 Bft) S 180 -1,9 C -2,4 C 0,0 km/h (0 Bft)
15.11.2012 22:05 -1,3 C 96 % 0,0 l/m 0,0 km/h (0 Bft) N-NO 22 -1,9 C -2,5 C 0,0 km/h (0 Bft)
15.11.2012 22:10 -0,9 C 97 % 0,0 l/m 0,0 km/h (0 Bft) N-NO 22 -1,3 C -2,5 C 0,0 km/h (0 Bft)
15.11.2012 22:15 -0,7 C 97 % 0,0 l/m 0,0 km/h (0 Bft) NO 45 -1,1 C -2,4 C 0,0 km/h (0 Bft)
15.11.2012 22:20 -0,5 C 97 % 0,0 l/m 0,2 km/h (0 Bft) W-NW 292 -0,9 C -1,9 C 0,0 km/h (0 Bft)
15.11.2012 22:25 -0,7 C 97 % 0,0 l/m 0,2 km/h (0 Bft) N 360 -1,1 C -2,0 C 0,0 km/h (0 Bft)
15.11.2012 22:30 -1,1 C 97 % 0,0 l/m 0,2 km/h (0 Bft) N 360 -1,5 C -2,1 C 0,0 km/h (0 Bft)
15.11.2012 22:35 -1,0 C 97 % 0,0 l/m 0,0 km/h (0 Bft) N 360 -1,4 C -2,3 C 0,0 km/h (0 Bft)
15.11.2012 22:40 -1,7 C 97 % 0,0 l/m 0,0 km/h (0 Bft) N 360 -2,1 C -2,6 C 0,0 km/h (0 Bft)
15.11.2012 22:45 -1,5 C 97 % 0,0 l/m 0,0 km/h (0 Bft) N-NO 22 -1,9 C -2,8 C 0,0 km/h (0 Bft)
15.11.2012 22:50 -1,5 C 97 % 0,0 l/m 0,0 km/h (0 Bft) N 360 -1,9 C -2,9 C 0,0 km/h (0 Bft)
15.11.2012 22:55 -1,6 C 97 % 0,0 l/m 0,0 km/h (0 Bft) N 360 -2,0 C -3,1 C 0,0 km/h (0 Bft)
15.11.2012 23:00 -1,7 C 97 % 0,0 l/m 0,0 km/h (0 Bft) N 360 -2,1 C -3,0 C 0,0 km/h (0 Bft)
15.11.2012 23:05 -1,6 C 97 % 0,0 l/m 0,0 km/h (0 Bft) N 360 -2,0 C -2,9 C 0,0 km/h (0 Bft)
15.11.2012 23:10 -1,9 C 97 % 0,0 l/m 0,0 km/h (0 Bft) NO 45 -2,3 C -2,9 C 0,0 km/h (0 Bft)
15.11.2012 23:15 -1,3 C 97 % 0,0 l/m 0,0 km/h (0 Bft) N-NO 22 -1,7 C -2,3 C 0,0 km/h (0 Bft)
15.11.2012 23:20 -1,5 C 97 % 0,0 l/m 0,0 km/h (0 Bft) N 360 -1,9 C -2,1 C 0,0 km/h (0 Bft)
15.11.2012 23:25 -1,7 C 97 % 0,0 l/m 0,0 km/h (0 Bft) N-NO 22 -2,1 C -2,3 C 0,0 km/h (0 Bft)
15.11.2012 23:30 -1,4 C 97 % 0,0 l/m 0,0 km/h (0 Bft) N 360 -1,8 C -2,3 C 0,0 km/h (0 Bft)
15.11.2012 23:35 -1,9 C 97 % 0,0 l/m 0,2 km/h (0 Bft) O 90 -2,3 C -2,4 C 1,6 km/h (1 Bft)
15.11.2012 23:40 -2,2 C 96 % 0,0 l/m 0,2 km/h (0 Bft) NO 45 -2,7 C -2,6 C 0,0 km/h (0 Bft)
15.11.2012 23:45 -2,2 C 96 % 0,0 l/m 0,0 km/h (0 Bft) N-NO 22 -2,7 C -2,8 C 0,0 km/h (0 Bft)
15.11.2012 23:50 -1,8 C 97 % 0,0 l/m 0,0 km/h (0 Bft) NO 45 -2,2 C -2,7 C 0,0 km/h (0 Bft)
15.11.2012 23:55 -1,8 C 96 % 0,0 l/m 0,0 km/h (0 Bft) O 90 -2,4 C -2,7 C 0,0 km/h (0 Bft)
_ Min-Zeit 07:10 15:25 - 23:55 - - 07:10 06:55 23:55
Minimum _ -4,1 C 90 % - 0,0 km/h (0 Bft) - - -4,6 C -5,0 C 0,0 km/h (0 Bft)
_ Max-Zeit 15:00 23:50 23:55 13:20 - - 14:10 12:10 13:40
Maximum _ 6,7 C 97 % 0,0 l/m 2,4 km/h
NW (1 Bft)
- - 5,6 C 14,8 C 5,0 km/h
W (1 Bft)
Durchschnitt _ 0,6 C 96 % #0,0 l/m 0,3 km/h (0 Bft) N-NW - -0,0 C 1,0 C 0,5 km/h (0 Bft)